createdAt,value
2022-10-17T05:03:58.651Z,18.40
2022-10-17T05:09:03.571Z,18.40
2022-10-17T05:14:07.699Z,18.30
2022-10-17T05:19:13.034Z,18.20
2022-10-17T05:24:18.001Z,18.20
2022-10-17T05:29:21.558Z,18.10
2022-10-17T05:34:27.301Z,18.10
2022-10-17T05:39:30.976Z,18.10
2022-10-17T05:44:35.355Z,18.10
2022-10-17T05:49:48.367Z,18.10
2022-10-17T05:54:56.459Z,18.20
2022-10-17T06:00:00.898Z,18.10
2022-10-17T06:05:07.431Z,18.10
2022-10-17T06:10:12.925Z,18.10
2022-10-17T06:15:16.633Z,18.20
2022-10-17T06:20:22.140Z,18.20
2022-10-17T06:25:27.067Z,18.10
2022-10-17T06:30:31.181Z,18.10
2022-10-17T06:35:36.411Z,18.10
2022-10-17T06:40:40.055Z,18.10
2022-10-17T06:45:43.830Z,18.00
2022-10-17T06:50:51.852Z,17.90
2022-10-17T06:56:01.154Z,17.80
2022-10-17T07:06:20.610Z,17.70
2022-10-17T07:11:25.856Z,17.70
2022-10-17T07:16:30.198Z,17.70
2022-10-17T07:21:38.952Z,17.80
2022-10-17T07:26:43.578Z,17.80
2022-10-17T07:31:48.870Z,17.70
2022-10-17T07:36:54.011Z,17.70
2022-10-17T07:41:58.832Z,17.60
2022-10-17T07:47:02.542Z,17.70
2022-10-17T07:52:07.682Z,17.80
2022-10-17T07:57:11.529Z,17.80
2022-10-17T08:02:22.790Z,17.90
2022-10-17T08:07:29.429Z,18.00
2022-10-17T08:12:34.485Z,18.00
2022-10-17T08:17:39.366Z,18.00
2022-10-17T08:22:44.773Z,18.10
2022-10-17T08:27:48.547Z,18.10
2022-10-17T08:32:52.354Z,18.20
2022-10-17T08:38:01.503Z,18.20
2022-10-17T08:43:27.008Z,18.20
2022-10-17T08:48:34.082Z,18.30
2022-10-17T08:53:44.429Z,18.40
2022-10-17T08:58:48.733Z,18.50
2022-10-17T09:04:07.737Z,18.60
2022-10-17T09:09:23.970Z,18.60
2022-10-17T09:14:49.974Z,18.60
2022-10-17T09:20:00.473Z,18.70
2022-10-17T09:25:10.530Z,18.70
2022-10-17T09:30:46.768Z,18.90
2022-10-17T09:35:52.010Z,19.00
2022-10-17T09:41:00.196Z,19.00
2022-10-17T09:46:10.074Z,19.00
2022-10-17T09:51:15.201Z,19.10
2022-10-17T09:56:30.655Z,19.20
2022-10-17T10:01:34.950Z,19.40
2022-10-17T10:06:39.360Z,19.50
2022-10-17T10:11:50.808Z,19.60
2022-10-17T10:16:54.745Z,19.70
2022-10-17T10:22:00.301Z,19.80
2022-10-17T10:27:06.865Z,20.00
2022-10-17T10:32:18.138Z,20.20
2022-10-17T10:37:24.693Z,20.50
2022-10-17T10:42:31.948Z,20.60
2022-10-17T10:47:35.551Z,20.70
2022-10-17T10:52:46.939Z,20.90
2022-10-17T10:57:58.155Z,20.90
2022-10-17T11:03:12.702Z,21.00
2022-10-17T11:08:26.230Z,21.10
2022-10-17T11:13:35.058Z,21.10
2022-10-17T11:18:45.672Z,21.00
2022-10-17T11:23:54.269Z,21.00
2022-10-17T11:29:01.443Z,21.00
2022-10-17T11:34:10.131Z,21.00
2022-10-17T11:39:18.552Z,21.20
2022-10-17T11:44:27.892Z,21.50
2022-10-17T11:49:39.881Z,21.70
2022-10-17T11:54:50.959Z,21.80
2022-10-17T12:00:04.066Z,21.90
2022-10-17T12:05:20.880Z,21.90
2022-10-17T12:10:38.480Z,22.00
2022-10-17T12:15:46.568Z,21.90
2022-10-17T12:20:57.881Z,21.70
2022-10-17T12:26:04.656Z,21.70
2022-10-17T12:31:23.307Z,21.70
2022-10-17T12:36:48.412Z,21.80
2022-10-17T12:41:55.511Z,21.70
2022-10-17T12:47:21.040Z,21.80
2022-10-17T12:52:27.071Z,21.70
2022-10-17T12:57:35.378Z,21.70
2022-10-17T13:02:41.841Z,21.70
2022-10-17T13:07:49.066Z,21.70
2022-10-17T13:12:55.711Z,21.70
2022-10-17T13:18:02.431Z,21.80
2022-10-17T13:23:06.011Z,21.70
2022-10-17T13:28:14.607Z,21.50
2022-10-17T13:33:32.181Z,21.50
2022-10-17T13:38:40.296Z,21.40
2022-10-17T13:43:46.659Z,21.40
2022-10-17T13:48:51.724Z,21.40
2022-10-17T13:53:55.611Z,21.50
2022-10-17T13:59:03.553Z,21.60
2022-10-17T14:04:19.273Z,21.60
2022-10-17T14:09:25.936Z,21.60
2022-10-17T14:14:37.502Z,21.60
2022-10-17T14:20:14.144Z,21.50
2022-10-17T14:25:32.687Z,21.50
2022-10-17T14:36:05.495Z,21.60
2022-10-17T14:41:41.531Z,21.70
2022-10-17T14:46:49.747Z,21.80
2022-10-17T14:52:27.849Z,21.70
2022-10-17T14:57:44.819Z,21.60
2022-10-17T15:02:49.344Z,21.50
2022-10-17T15:07:53.575Z,21.40
2022-10-17T15:13:26.146Z,21.40
2022-10-17T15:18:23.871Z,21.30
2022-10-17T15:23:27.592Z,21.30
2022-10-17T15:28:32.618Z,21.20
2022-10-17T15:33:36.309Z,21.20
2022-10-17T15:38:39.920Z,21.20
2022-10-17T15:43:44.857Z,21.00
2022-10-17T15:48:48.740Z,20.80
2022-10-17T15:53:52.328Z,20.80
2022-10-17T15:58:58.097Z,20.80
2022-10-17T16:04:02.416Z,20.80
2022-10-17T16:09:06.007Z,20.70
2022-10-17T16:14:13.716Z,20.80
2022-10-17T16:19:17.349Z,20.80
2022-10-17T16:24:20.904Z,20.80
2022-10-17T16:29:25.999Z,20.70
2022-10-17T16:34:30.894Z,20.70
2022-10-17T16:39:35.106Z,20.70
2022-10-17T16:44:40.040Z,20.70
2022-10-17T16:49:45.326Z,20.60
2022-10-17T16:54:49.267Z,20.60
2022-10-17T16:59:54.369Z,20.60
2022-10-17T17:04:57.975Z,20.60
2022-10-17T17:10:01.508Z,20.50
2022-10-17T17:15:06.931Z,20.40
2022-10-17T17:20:10.867Z,20.40
2022-10-17T17:25:14.626Z,20.30
2022-10-17T17:30:19.786Z,20.40
2022-10-17T17:35:23.407Z,20.30
2022-10-17T17:40:27.013Z,20.30
2022-10-17T17:45:31.989Z,20.20
2022-10-17T17:50:38.037Z,20.10
2022-10-17T17:55:41.847Z,20.10
2022-10-17T18:00:46.787Z,20.00
2022-10-17T18:05:50.550Z,20.00
2022-10-17T18:10:56.466Z,19.90
2022-10-17T18:16:02.852Z,19.90
2022-10-17T18:21:06.620Z,19.80
2022-10-17T18:26:10.951Z,19.70
2022-10-17T18:31:19.157Z,19.70
2022-10-17T18:36:23.217Z,19.70
2022-10-17T18:41:28.234Z,19.70
2022-10-17T18:46:36.112Z,19.70
2022-10-17T18:51:40.144Z,19.70
2022-10-17T18:56:45.087Z,19.70
2022-10-17T19:01:50.336Z,19.60
2022-10-17T19:06:53.981Z,19.70
2022-10-17T19:11:57.523Z,19.60
2022-10-17T19:17:02.815Z,19.70
2022-10-17T19:22:06.539Z,19.60
2022-10-17T19:27:12.205Z,19.70
2022-10-17T19:32:19.296Z,19.60
2022-10-17T19:37:26.916Z,19.60
2022-10-17T19:42:31.420Z,19.60
2022-10-17T19:47:37.109Z,19.60
2022-10-17T19:52:40.829Z,19.60
2022-10-17T19:57:44.415Z,19.50
2022-10-17T20:02:49.351Z,19.50
2022-10-17T20:07:52.957Z,19.50
2022-10-17T20:12:56.541Z,19.40
2022-10-17T20:18:01.514Z,19.50
2022-10-17T20:23:06.005Z,19.50
2022-10-17T20:28:09.684Z,19.40
2022-10-17T20:33:15.705Z,19.40
2022-10-17T20:38:19.245Z,19.30
2022-10-17T20:43:22.793Z,19.20
2022-10-17T20:48:28.359Z,19.20
2022-10-17T20:53:37.036Z,19.20
2022-10-17T20:58:41.025Z,19.10
2022-10-17T21:03:46.628Z,19.10
2022-10-17T21:08:50.889Z,19.00
2022-10-17T21:13:59.477Z,18.90
2022-10-17T21:19:05.508Z,18.90
2022-10-17T21:24:12.947Z,18.80
2022-10-17T21:29:16.537Z,18.70
2022-10-17T21:34:24.562Z,18.70
2022-10-17T21:39:28.223Z,18.70
2022-10-17T21:44:31.945Z,18.70
2022-10-17T21:49:36.846Z,18.70
2022-10-17T21:54:40.403Z,18.70
2022-10-17T21:59:44.000Z,18.70
2022-10-17T22:04:48.908Z,18.70
2022-10-17T22:09:52.526Z,18.70
2022-10-17T22:14:56.197Z,18.80
2022-10-17T22:20:01.133Z,18.80
2022-10-17T22:25:05.006Z,18.80
